Bird Island, Minnesota
Current Conditions -  °F | °C
As of 6:13 PM on Sunday 25 Jan 2015 (Local Time) from KOVL Reporting Station
Overcast Overcast  
Wind Chill: 23°   Ceiling: 2100
Heat Index: 28°   Visibility: 10mi
Dew Point: 25°   Wind: 5mph
Humidity: 86%   Direction: 100°E
Pressure: 30.02"   Gusts: NA
Location:  44.77°N, 94.9°W
Report Text: KOVL 260013Z AUTO 10004KT 10SM OVC021 M02/M04 A3002 RMK AO2
Loading
Personal Weather Stations






























Interactive Weather Map New forecast layout! Learn more

10-Day Weather Forecast

Advertisements
Track Severe Weather on mobile